sensor_id;sensor_type;location;lat;lon;timestamp;pressure;altitude;pressure_sealevel;temperature;humidity
12178;BME280;6152;48.728;9.256;2023-04-07T00:00:58;97121.63;;;5.17;100.00
12178;BME280;6152;48.728;9.256;2023-04-07T00:03:24;97114.91;;;5.13;100.00
12178;BME280;6152;48.728;9.256;2023-04-07T00:05:50;97114.94;;;5.12;100.00
12178;BME280;6152;48.728;9.256;2023-04-07T00:08:17;97107.28;;;5.10;100.00
12178;BME280;6152;48.728;9.256;2023-04-07T00:10:43;97106.75;;;5.02;100.00
12178;BME280;6152;48.728;9.256;2023-04-07T00:13:09;97105.25;;;4.96;100.00
12178;BME280;6152;48.728;9.256;2023-04-07T00:15:35;97100.13;;;4.95;100.00
12178;BME280;6152;48.728;9.256;2023-04-07T00:18:02;97105.28;;;4.95;100.00
12178;BME280;6152;48.728;9.256;2023-04-07T00:20:28;97100.69;;;5.03;100.00
12178;BME280;6152;48.728;9.256;2023-04-07T00:22:54;97096.19;;;5.08;100.00
12178;BME280;6152;48.728;9.256;2023-04-07T00:25:20;97087.28;;;5.15;100.00
12178;BME280;6152;48.728;9.256;2023-04-07T00:27:46;97082.94;;;5.17;100.00
12178;BME280;6152;48.728;9.256;2023-04-07T00:30:13;97088.03;;;5.19;100.00
12178;BME280;6152;48.728;9.256;2023-04-07T00:32:40;97082.69;;;5.23;100.00
12178;BME280;6152;48.728;9.256;2023-04-07T00:35:06;97079.38;;;5.20;100.00
12178;BME280;6152;48.728;9.256;2023-04-07T00:37:32;97078.59;;;5.18;100.00
12178;BME280;6152;48.728;9.256;2023-04-07T00:39:59;97081.16;;;5.18;100.00
12178;BME280;6152;48.728;9.256;2023-04-07T00:42:25;97090.78;;;5.14;100.00
12178;BME280;6152;48.728;9.256;2023-04-07T00:44:51;97078.84;;;5.12;100.00
12178;BME280;6152;48.728;9.256;2023-04-07T00:47:17;97074.47;;;5.14;100.00
12178;BME280;6152;48.728;9.256;2023-04-07T00:49:43;97074.47;;;5.14;100.00
12178;BME280;6152;48.728;9.256;2023-04-07T00:52:10;97064.94;;;5.16;100.00
12178;BME280;6152;48.728;9.256;2023-04-07T00:54:38;97062.34;;;5.16;100.00
12178;BME280;6152;48.728;9.256;2023-04-07T00:57:04;97051.31;;;5.12;100.00
12178;BME280;6152;48.728;9.256;2023-04-07T00:59:31;97047.84;;;5.13;100.00
12178;BME280;6152;48.728;9.256;2023-04-07T01:02:22;97053.00;;;5.13;100.00
12178;BME280;6152;48.728;9.256;2023-04-07T01:05:03;97050.34;;;5.15;100.00
12178;BME280;6152;48.728;9.256;2023-04-07T01:07:54;97042.56;;;5.16;100.00
12178;BME280;6152;48.728;9.256;2023-04-07T01:10:57;97039.84;;;5.19;100.00
12178;BME280;6152;48.728;9.256;2023-04-07T01:13:51;97028.78;;;5.17;100.00
12178;BME280;6152;48.728;9.256;2023-04-07T01:16:29;97033.94;;;5.17;100.00
12178;BME280;6152;48.728;9.256;2023-04-07T01:21:43;97023.13;;;5.07;100.00
12178;BME280;6152;48.728;9.256;2023-04-07T01:26:50;97025.81;;;5.04;100.00
12178;BME280;6152;48.728;9.256;2023-04-07T01:32:04;97018.81;;;5.08;100.00
12178;BME280;6152;48.728;9.256;2023-04-07T01:34:32;97021.22;;;5.13;100.00
12178;BME280;6152;48.728;9.256;2023-04-07T01:37:00;97016.75;;;5.16;100.00
12178;BME280;6152;48.728;9.256;2023-04-07T01:39:27;97015.88;;;5.17;100.00
12178;BME280;6152;48.728;9.256;2023-04-07T01:41:54;97018.25;;;5.22;100.00
12178;BME280;6152;48.728;9.256;2023-04-07T01:44:22;97012.06;;;5.26;100.00
12178;BME280;6152;48.728;9.256;2023-04-07T01:46:50;97011.75;;;5.33;100.00
12178;BME280;6152;48.728;9.256;2023-04-07T01:49:16;97011.81;;;5.32;100.00
12178;BME280;6152;48.728;9.256;2023-04-07T01:51:43;96998.97;;;5.30;100.00
12178;BME280;6152;48.728;9.256;2023-04-07T01:54:15;96994.59;;;5.32;100.00
12178;BME280;6152;48.728;9.256;2023-04-07T01:56:43;97001.47;;;5.32;100.00
12178;BME280;6152;48.728;9.256;2023-04-07T01:59:10;97003.31;;;5.30;100.00
12178;BME280;6152;48.728;9.256;2023-04-07T02:01:36;96995.59;;;5.28;100.00
12178;BME280;6152;48.728;9.256;2023-04-07T02:04:16;96998.91;;;5.32;100.00
12178;BME280;6152;48.728;9.256;2023-04-07T02:06:53;96994.66;;;5.31;100.00
12178;BME280;6152;48.728;9.256;2023-04-07T02:09:22;97002.31;;;5.32;100.00
12178;BME280;6152;48.728;9.256;2023-04-07T02:11:51;97000.78;;;5.28;100.00
12178;BME280;6152;48.728;9.256;2023-04-07T02:14:20;96999.75;;;5.32;100.00
12178;BME280;6152;48.728;9.256;2023-04-07T02:16:49;96992.91;;;5.31;100.00
12178;BME280;6152;48.728;9.256;2023-04-07T02:19:16;96985.16;;;5.31;100.00
12178;BME280;6152;48.728;9.256;2023-04-07T02:21:43;96986.22;;;5.27;100.00
12178;BME280;6152;48.728;9.256;2023-04-07T02:24:11;96980.00;;;5.31;100.00
12178;BME280;6152;48.728;9.256;2023-04-07T02:26:37;96984.25;;;5.32;100.00
12178;BME280;6152;48.728;9.256;2023-04-07T02:29:04;96983.25;;;5.36;100.00
12178;BME280;6152;48.728;9.256;2023-04-07T02:31:30;96973.06;;;5.33;100.00
12178;BME280;6152;48.728;9.256;2023-04-07T02:33:56;96979.06;;;5.34;100.00
12178;BME280;6152;48.728;9.256;2023-04-07T02:36:22;96984.94;;;5.37;100.00
12178;BME280;6152;48.728;9.256;2023-04-07T02:38:49;96980.66;;;5.36;100.00
12178;BME280;6152;48.728;9.256;2023-04-07T02:41:15;96972.78;;;5.39;100.00
12178;BME280;6152;48.728;9.256;2023-04-07T02:43:41;96977.94;;;5.39;100.00
12178;BME280;6152;48.728;9.256;2023-04-07T02:46:07;96972.72;;;5.41;100.00
12178;BME280;6152;48.728;9.256;2023-04-07T02:48:33;96963.19;;;5.43;100.00
12178;BME280;6152;48.728;9.256;2023-04-07T02:50:59;96964.78;;;5.45;100.00
12178;BME280;6152;48.728;9.256;2023-04-07T02:53:25;96961.44;;;5.43;100.00
12178;BME280;6152;48.728;9.256;2023-04-07T02:55:51;96962.19;;;5.45;100.00
12178;BME280;6152;48.728;9.256;2023-04-07T02:58:17;96951.88;;;5.45;100.00
12178;BME280;6152;48.728;9.256;2023-04-07T03:00:44;96952.84;;;5.43;100.00
12178;BME280;6152;48.728;9.256;2023-04-07T03:03:10;96952.16;;;5.39;100.00
12178;BME280;6152;48.728;9.256;2023-04-07T03:05:36;96952.16;;;5.39;100.00
12178;BME280;6152;48.728;9.256;2023-04-07T03:08:02;96952.28;;;5.36;100.00
12178;BME280;6152;48.728;9.256;2023-04-07T03:10:28;96948.94;;;5.34;100.00
12178;BME280;6152;48.728;9.256;2023-04-07T03:12:55;96953.16;;;5.35;100.00
12178;BME280;6152;48.728;9.256;2023-04-07T03:15:22;96951.44;;;5.36;100.00
12178;BME280;6152;48.728;9.256;2023-04-07T03:17:48;96947.25;;;5.33;100.00
12178;BME280;6152;48.728;9.256;2023-04-07T03:20:14;96942.94;;;5.34;100.00
12178;BME280;6152;48.728;9.256;2023-04-07T03:22:40;96941.06;;;5.37;100.00
12178;BME280;6152;48.728;9.256;2023-04-07T03:25:06;96944.53;;;5.36;100.00
12178;BME280;6152;48.728;9.256;2023-04-07T03:27:33;96940.28;;;5.35;100.00
12178;BME280;6152;48.728;9.256;2023-04-07T03:29:59;96935.09;;;5.35;100.00
12178;BME280;6152;48.728;9.256;2023-04-07T03:32:25;96944.44;;;5.38;100.00
12178;BME280;6152;48.728;9.256;2023-04-07T03:34:51;96936.72;;;5.38;100.00
12178;BME280;6152;48.728;9.256;2023-04-07T03:37:17;96932.47;;;5.37;100.00
12178;BME280;6152;48.728;9.256;2023-04-07T03:39:43;96934.97;;;5.38;100.00
12178;BME280;6152;48.728;9.256;2023-04-07T03:42:10;96933.25;;;5.39;100.00
12178;BME280;6152;48.728;9.256;2023-04-07T03:44:36;96927.09;;;5.41;100.00
12178;BME280;6152;48.728;9.256;2023-04-07T03:47:02;96926.22;;;5.42;100.00
12178;BME280;6152;48.728;9.256;2023-04-07T03:49:28;96928.78;;;5.42;100.00
12178;BME280;6152;48.728;9.256;2023-04-07T03:51:56;96932.03;;;5.47;100.00
12178;BME280;6152;48.728;9.256;2023-04-07T03:54:22;96927.47;;;5.52;100.00
12178;BME280;6152;48.728;9.256;2023-04-07T03:56:48;96925.69;;;5.54;100.00
12178;BME280;6152;48.728;9.256;2023-04-07T03:59:14;96919.59;;;5.55;100.00
12178;BME280;6152;48.728;9.256;2023-04-07T04:01:41;96922.19;;;5.55;100.00
12178;BME280;6152;48.728;9.256;2023-04-07T04:04:07;96922.19;;;5.55;100.00
12178;BME280;6152;48.728;9.256;2023-04-07T04:06:33;96918.84;;;5.53;100.00
12178;BME280;6152;48.728;9.256;2023-04-07T04:08:59;96923.09;;;5.54;100.00
12178;BME280;6152;48.728;9.256;2023-04-07T04:11:25;96917.84;;;5.56;100.00
12178;BME280;6152;48.728;9.256;2023-04-07T04:13:52;96909.38;;;5.54;100.00
12178;BME280;6152;48.728;9.256;2023-04-07T04:16:18;96920.53;;;5.54;100.00
12178;BME280;6152;48.728;9.256;2023-04-07T04:18:44;96916.13;;;5.56;100.00
12178;BME280;6152;48.728;9.256;2023-04-07T04:21:10;96914.38;;;5.57;100.00
12178;BME280;6152;48.728;9.256;2023-04-07T04:23:36;96911.03;;;5.55;100.00
12178;BME280;6152;48.728;9.256;2023-04-07T04:26:02;96908.38;;;5.56;100.00
12178;BME280;6152;48.728;9.256;2023-04-07T04:28:29;96908.38;;;5.56;100.00
12178;BME280;6152;48.728;9.256;2023-04-07T04:30:55;96901.53;;;5.55;100.00
12178;BME280;6152;48.728;9.256;2023-04-07T04:33:21;96908.38;;;5.56;100.00
12178;BME280;6152;48.728;9.256;2023-04-07T04:35:47;96900.72;;;5.55;100.00
12178;BME280;6152;48.728;9.256;2023-04-07T04:38:13;96910.19;;;5.54;100.00
12178;BME280;6152;48.728;9.256;2023-04-07T04:40:39;96905.09;;;5.53;100.00
12178;BME280;6152;48.728;9.256;2023-04-07T04:43:05;96906.97;;;5.49;100.00
12178;BME280;6152;48.728;9.256;2023-04-07T04:45:32;96901.94;;;5.46;100.00
12178;BME280;6152;48.728;9.256;2023-04-07T04:47:58;96900.13;;;5.48;100.00
12178;BME280;6152;48.728;9.256;2023-04-07T04:50:25;96904.25;;;5.52;100.00
12178;BME280;6152;48.728;9.256;2023-04-07T04:52:51;96910.19;;;5.54;100.00
12178;BME280;6152;48.728;9.256;2023-04-07T04:55:17;96917.03;;;5.55;100.00
12178;BME280;6152;48.728;9.256;2023-04-07T04:57:43;96906.56;;;5.58;100.00
12178;BME280;6152;48.728;9.256;2023-04-07T05:00:10;96911.03;;;5.55;100.00
12178;BME280;6152;48.728;9.256;2023-04-07T05:02:36;96907.81;;;5.50;100.00
12178;BME280;6152;48.728;9.256;2023-04-07T05:05:02;96912.28;;;5.46;100.00
12178;BME280;6152;48.728;9.256;2023-04-07T05:07:29;96915.59;;;5.48;100.00
12178;BME280;6152;48.728;9.256;2023-04-07T05:09:55;96910.34;;;5.51;100.00
12178;BME280;6152;48.728;9.256;2023-04-07T05:12:21;96913.97;;;5.47;100.00
12178;BME280;6152;48.728;9.256;2023-04-07T05:14:48;96908.78;;;5.47;100.00
12178;BME280;6152;48.728;9.256;2023-04-07T05:17:14;96908.53;;;5.53;100.00
12178;BME280;6152;48.728;9.256;2023-04-07T05:19:40;96914.44;;;5.55;100.00
12178;BME280;6152;48.728;9.256;2023-04-07T05:22:06;96912.50;;;5.60;100.00
12178;BME280;6152;48.728;9.256;2023-04-07T05:24:32;96908.09;;;5.63;100.00
12178;BME280;6152;48.728;9.256;2023-04-07T05:26:58;96906.44;;;5.62;100.00
12178;BME280;6152;48.728;9.256;2023-04-07T05:29:24;96908.09;;;5.63;100.00
12178;BME280;6152;48.728;9.256;2023-04-07T05:31:51;96913.25;;;5.63;100.00
12178;BME280;6152;48.728;9.256;2023-04-07T05:34:17;96915.09;;;5.60;100.00
12178;BME280;6152;48.728;9.256;2023-04-07T05:36:43;96917.53;;;5.64;100.00
12178;BME280;6152;48.728;9.256;2023-04-07T05:39:09;96915.84;;;5.63;100.00
12178;BME280;6152;48.728;9.256;2023-04-07T05:41:35;96922.50;;;5.68;100.00
12178;BME280;6152;48.728;9.256;2023-04-07T05:44:02;96914.53;;;5.73;100.00
12178;BME280;6152;48.728;9.256;2023-04-07T05:46:28;96919.31;;;5.82;100.00
12178;BME280;6152;48.728;9.256;2023-04-07T05:48:54;96913.88;;;5.88;100.00
12178;BME280;6152;48.728;9.256;2023-04-07T05:51:20;96915.28;;;5.95;100.00
12178;BME280;6152;48.728;9.256;2023-04-07T05:53:46;96913.31;;;6.00;100.00
12178;BME280;6152;48.728;9.256;2023-04-07T05:56:12;96915.50;;;6.09;100.00
12178;BME280;6152;48.728;9.256;2023-04-07T05:58:39;96912.63;;;6.15;100.00
12178;BME280;6152;48.728;9.256;2023-04-07T06:01:05;96921.13;;;6.17;100.00
12178;BME280;6152;48.728;9.256;2023-04-07T06:03:31;96925.69;;;6.12;100.00
12178;BME280;6152;48.728;9.256;2023-04-07T06:05:57;96923.25;;;6.09;100.00
12178;BME280;6152;48.728;9.256;2023-04-07T06:08:23;96928.31;;;6.10;100.00
12178;BME280;6152;48.728;9.256;2023-04-07T06:10:49;96922.91;;;6.17;100.00
12178;BME280;6152;48.728;9.256;2023-04-07T06:13:16;96927.63;;;6.26;100.00
12178;BME280;6152;48.728;9.256;2023-04-07T06:15:42;96925.59;;;6.32;100.00
12178;BME280;6152;48.728;9.256;2023-04-07T06:18:08;96930.63;;;6.35;100.00
12178;BME280;6152;48.728;9.256;2023-04-07T06:20:34;96936.47;;;6.39;100.00
12178;BME280;6152;48.728;9.256;2023-04-07T06:23:00;96926.13;;;6.39;100.00
12178;BME280;6152;48.728;9.256;2023-04-07T06:25:26;96924.88;;;6.47;100.00
12178;BME280;6152;48.728;9.256;2023-04-07T06:27:53;96926.19;;;6.56;100.00
12178;BME280;6152;48.728;9.256;2023-04-07T06:30:20;96930.16;;;6.63;100.00
12178;BME280;6152;48.728;9.256;2023-04-07T06:32:46;96925.34;;;6.55;100.00
12178;BME280;6152;48.728;9.256;2023-04-07T06:35:12;96931.44;;;6.54;100.00
12178;BME280;6152;48.728;9.256;2023-04-07T06:37:38;96931.44;;;6.54;100.00
12178;BME280;6152;48.728;9.256;2023-04-07T06:40:06;96929.59;;;6.56;100.00
12178;BME280;6152;48.728;9.256;2023-04-07T06:42:32;96928.72;;;6.57;100.00
12178;BME280;6152;48.728;9.256;2023-04-07T06:44:58;96926.50;;;6.67;100.00
12178;BME280;6152;48.728;9.256;2023-04-07T06:47:24;96927.34;;;6.68;100.00
12178;BME280;6152;48.728;9.256;2023-04-07T06:49:50;96926.75;;;6.80;100.00
12178;BME280;6152;48.728;9.256;2023-04-07T06:52:17;96920.38;;;6.87;100.00
12178;BME280;6152;48.728;9.256;2023-04-07T06:54:43;96928.38;;;6.99;100.00
12178;BME280;6152;48.728;9.256;2023-04-07T06:57:09;96919.25;;;7.09;100.00
12178;BME280;6152;48.728;9.256;2023-04-07T06:59:39;96913.66;;;7.00;100.00
12178;BME280;6152;48.728;9.256;2023-04-07T07:02:06;96920.47;;;7.02;100.00
12178;BME280;6152;48.728;9.256;2023-04-07T07:04:35;96922.69;;;7.10;100.00
12178;BME280;6152;48.728;9.256;2023-04-07T07:07:01;96922.94;;;7.21;100.00
12178;BME280;6152;48.728;9.256;2023-04-07T07:09:28;96918.72;;;7.20;100.00
12178;BME280;6152;48.728;9.256;2023-04-07T07:11:54;96917.56;;;7.08;100.00
12178;BME280;6152;48.728;9.256;2023-04-07T07:14:20;96919.00;;;7.14;100.00
12178;BME280;6152;48.728;9.256;2023-04-07T07:16:46;96921.59;;;7.14;100.00
12178;BME280;6152;48.728;9.256;2023-04-07T07:19:13;96914.28;;;7.22;100.00
12178;BME280;6152;48.728;9.256;2023-04-07T07:21:39;96920.19;;;7.41;100.00
12178;BME280;6152;48.728;9.256;2023-04-07T07:24:05;96918.09;;;7.65;100.00
12178;BME280;6152;48.728;9.256;2023-04-07T07:26:32;96924.66;;;7.88;100.00
12178;BME280;6152;48.728;9.256;2023-04-07T07:28:58;96926.50;;;8.17;100.00
12178;BME280;6152;48.728;9.256;2023-04-07T07:31:24;96921.38;;;8.33;100.00
12178;BME280;6152;48.728;9.256;2023-04-07T07:33:51;96925.25;;;8.24;100.00
12178;BME280;6152;48.728;9.256;2023-04-07T07:36:17;96928.03;;;8.05;100.00
12178;BME280;6152;48.728;9.256;2023-04-07T07:38:43;96933.88;;;8.09;100.00
12178;BME280;6152;48.728;9.256;2023-04-07T07:41:09;96931.19;;;7.95;100.00
12178;BME280;6152;48.728;9.256;2023-04-07T07:43:35;96939.72;;;7.97;100.00
12178;BME280;6152;48.728;9.256;2023-04-07T07:46:02;96939.56;;;8.16;100.00
12178;BME280;6152;48.728;9.256;2023-04-07T07:48:28;96938.22;;;8.24;100.00
12178;BME280;6152;48.728;9.256;2023-04-07T07:50:55;96937.69;;;8.50;100.00
12178;BME280;6152;48.728;9.256;2023-04-07T07:53:21;96943.50;;;8.85;100.00
12178;BME280;6152;48.728;9.256;2023-04-07T07:55:48;96944.19;;;9.19;100.00
12178;BME280;6152;48.728;9.256;2023-04-07T07:58:14;96941.03;;;9.13;100.00
12178;BME280;6152;48.728;9.256;2023-04-07T08:00:40;96939.72;;;9.64;100.00
12178;BME280;6152;48.728;9.256;2023-04-07T08:03:07;96942.81;;;9.85;100.00
12178;BME280;6152;48.728;9.256;2023-04-07T08:05:33;96944.22;;;10.19;100.00
12178;BME280;6152;48.728;9.256;2023-04-07T08:07:59;96946.47;;;10.52;100.00
12178;BME280;6152;48.728;9.256;2023-04-07T08:10:26;96943.38;;;10.59;100.00
12178;BME280;6152;48.728;9.256;2023-04-07T08:12:52;96935.78;;;11.10;100.00
12178;BME280;6152;48.728;9.256;2023-04-07T08:15:18;96945.84;;;11.02;100.00
12178;BME280;6152;48.728;9.256;2023-04-07T08:17:44;96951.28;;;11.24;100.00
12178;BME280;6152;48.728;9.256;2023-04-07T08:20:11;96948.25;;;11.57;100.00
12178;BME280;6152;48.728;9.256;2023-04-07T08:22:37;96946.31;;;11.86;100.00
12178;BME280;6152;48.728;9.256;2023-04-07T08:25:03;96952.44;;;12.10;100.00
12178;BME280;6152;48.728;9.256;2023-04-07T08:27:29;96950.94;;;12.31;100.00
12178;BME280;6152;48.728;9.256;2023-04-07T08:30:00;96951.38;;;12.25;97.88
12178;BME280;6152;48.728;9.256;2023-04-07T08:32:36;96938.19;;;12.39;100.00
12178;BME280;6152;48.728;9.256;2023-04-07T08:35:03;96947.56;;;12.54;97.61
12178;BME280;6152;48.728;9.256;2023-04-07T08:37:30;96943.88;;;12.57;98.42
12178;BME280;6152;48.728;9.256;2023-04-07T08:39:56;96939.22;;;13.09;91.04
12178;BME280;6152;48.728;9.256;2023-04-07T08:42:26;96946.50;;;13.28;90.31
12178;BME280;6152;48.728;9.256;2023-04-07T08:44:55;96941.19;;;13.87;82.22
12178;BME280;6152;48.728;9.256;2023-04-07T08:47:25;96949.47;;;15.03;73.23
12178;BME280;6152;48.728;9.256;2023-04-07T08:49:53;96942.00;;;17.41;60.72
12178;BME280;6152;48.728;9.256;2023-04-07T08:52:32;96928.91;;;20.20;48.26
12178;BME280;6152;48.728;9.256;2023-04-07T08:54:59;96927.78;;;22.28;43.23
12178;BME280;6152;48.728;9.256;2023-04-07T08:57:32;96919.31;;;22.40;39.86
12178;BME280;6152;48.728;9.256;2023-04-07T09:00:00;96923.72;;;23.48;38.18
12178;BME280;6152;48.728;9.256;2023-04-07T09:02:36;96918.03;;;23.06;37.35
12178;BME280;6152;48.728;9.256;2023-04-07T09:05:04;96927.91;;;22.34;37.72
12178;BME280;6152;48.728;9.256;2023-04-07T09:07:35;96918.72;;;21.25;38.54
12178;BME280;6152;48.728;9.256;2023-04-07T09:10:02;96917.09;;;19.10;41.00
12178;BME280;6152;48.728;9.256;2023-04-07T09:12:31;96921.63;;;17.72;45.42
12178;BME280;6152;48.728;9.256;2023-04-07T09:15:01;96926.84;;;16.36;49.44
12178;BME280;6152;48.728;9.256;2023-04-07T09:17:42;96917.16;;;16.27;51.16
12178;BME280;6152;48.728;9.256;2023-04-07T09:20:08;96913.72;;;17.04;49.87
12178;BME280;6152;48.728;9.256;2023-04-07T09:22:37;96914.72;;;19.16;45.66
12178;BME280;6152;48.728;9.256;2023-04-07T09:25:11;96918.38;;;21.12;40.87
12178;BME280;6152;48.728;9.256;2023-04-07T09:27:38;96910.38;;;20.96;39.06
12178;BME280;6152;48.728;9.256;2023-04-07T09:30:13;96920.38;;;21.58;38.44
12178;BME280;6152;48.728;9.256;2023-04-07T09:32:41;96909.44;;;21.21;38.45
12178;BME280;6152;48.728;9.256;2023-04-07T09:35:08;96918.09;;;21.96;38.04
12178;BME280;6152;48.728;9.256;2023-04-07T09:37:34;96917.31;;;22.34;37.01
12178;BME280;6152;48.728;9.256;2023-04-07T09:40:00;96916.13;;;22.92;36.04
12178;BME280;6152;48.728;9.256;2023-04-07T09:42:27;96912.84;;;23.12;34.10
12178;BME280;6152;48.728;9.256;2023-04-07T09:44:58;96912.28;;;21.76;36.45
12178;BME280;6152;48.728;9.256;2023-04-07T09:47:32;96915.84;;;19.32;39.58
12178;BME280;6152;48.728;9.256;2023-04-07T09:49:58;96914.41;;;19.02;41.34
12178;BME280;6152;48.728;9.256;2023-04-07T09:52:51;96914.50;;;19.45;41.24
12178;BME280;6152;48.728;9.256;2023-04-07T09:55:21;96908.00;;;19.22;42.15
12178;BME280;6152;48.728;9.256;2023-04-07T09:57:52;96906.28;;;18.95;43.18
12178;BME280;6152;48.728;9.256;2023-04-07T10:00:20;96914.47;;;18.75;43.33
12178;BME280;6152;48.728;9.256;2023-04-07T10:02:46;96904.97;;;18.27;43.99
12178;BME280;6152;48.728;9.256;2023-04-07T10:05:14;96912.63;;;18.11;44.36
12178;BME280;6152;48.728;9.256;2023-04-07T10:07:40;96912.47;;;18.22;44.48
12178;BME280;6152;48.728;9.256;2023-04-07T10:10:07;96911.94;;;17.62;45.51
12178;BME280;6152;48.728;9.256;2023-04-07T10:12:37;96908.91;;;18.04;45.92
12178;BME280;6152;48.728;9.256;2023-04-07T10:15:04;96906.16;;;18.70;43.91
12178;BME280;6152;48.728;9.256;2023-04-07T10:17:31;96912.69;;;18.65;44.16
12178;BME280;6152;48.728;9.256;2023-04-07T10:19:59;96900.91;;;19.05;43.46
12178;BME280;6152;48.728;9.256;2023-04-07T10:22:28;96904.97;;;18.82;44.03
12178;BME280;6152;48.728;9.256;2023-04-07T10:25:03;96897.31;;;19.06;42.71
12178;BME280;6152;48.728;9.256;2023-04-07T10:27:53;96906.06;;;18.79;43.31
12178;BME280;6152;48.728;9.256;2023-04-07T10:30:25;96917.81;;;18.67;43.13
12178;BME280;6152;48.728;9.256;2023-04-07T10:32:53;96913.28;;;17.76;44.70
12178;BME280;6152;48.728;9.256;2023-04-07T10:35:20;96906.25;;;17.38;45.62
12178;BME280;6152;48.728;9.256;2023-04-07T10:40:32;96917.47;;;17.69;45.83
12178;BME280;6152;48.728;9.256;2023-04-07T10:42:58;96910.53;;;17.78;45.09
12178;BME280;6152;48.728;9.256;2023-04-07T10:48:11;96910.69;;;17.28;46.14
12178;BME280;6152;48.728;9.256;2023-04-07T10:50:38;96914.56;;;17.05;46.94
12178;BME280;6152;48.728;9.256;2023-04-07T10:53:09;96918.31;;;16.43;48.07
12178;BME280;6152;48.728;9.256;2023-04-07T10:55:41;96918.47;;;16.21;48.79
12178;BME280;6152;48.728;9.256;2023-04-07T11:03:52;96917.41;;;16.63;46.83
12178;BME280;6152;48.728;9.256;2023-04-07T11:06:19;96916.47;;;16.74;47.72
12178;BME280;6152;48.728;9.256;2023-04-07T11:08:46;96920.50;;;16.88;46.92
12178;BME280;6152;48.728;9.256;2023-04-07T11:11:15;96925.69;;;16.19;47.61
12178;BME280;6152;48.728;9.256;2023-04-07T11:13:43;96910.09;;;15.97;49.70
12178;BME280;6152;48.728;9.256;2023-04-07T11:16:10;96918.81;;;15.77;50.19
12178;BME280;6152;48.728;9.256;2023-04-07T11:18:36;96916.00;;;15.48;50.10
12178;BME280;6152;48.728;9.256;2023-04-07T11:21:04;96919.41;;;14.75;53.59
12178;BME280;6152;48.728;9.256;2023-04-07T11:23:43;96918.81;;;14.72;55.43
12178;BME280;6152;48.728;9.256;2023-04-07T11:26:12;96915.69;;;14.78;56.30
12178;BME280;6152;48.728;9.256;2023-04-07T11:29:07;96917.91;;;14.39;58.47
12178;BME280;6152;48.728;9.256;2023-04-07T11:31:35;96922.41;;;14.26;59.96
12178;BME280;6152;48.728;9.256;2023-04-07T11:34:03;96919.31;;;14.21;59.12
12178;BME280;6152;48.728;9.256;2023-04-07T11:36:40;96915.75;;;14.00;61.53
12178;BME280;6152;48.728;9.256;2023-04-07T11:39:18;96921.94;;;13.99;65.18
12178;BME280;6152;48.728;9.256;2023-04-07T11:41:47;96924.34;;;14.13;63.99
12178;BME280;6152;48.728;9.256;2023-04-07T11:44:14;96922.31;;;14.16;63.80
12178;BME280;6152;48.728;9.256;2023-04-07T11:46:55;96928.34;;;14.17;62.04
12178;BME280;6152;48.728;9.256;2023-04-07T11:49:23;96931.94;;;14.16;62.30
12178;BME280;6152;48.728;9.256;2023-04-07T11:52:01;96932.97;;;13.80;65.34
12178;BME280;6152;48.728;9.256;2023-04-07T11:54:41;96931.53;;;13.65;66.62
12178;BME280;6152;48.728;9.256;2023-04-07T11:57:07;96928.59;;;13.35;62.59
12178;BME280;6152;48.728;9.256;2023-04-07T11:59:37;96936.34;;;13.36;63.34
12178;BME280;6152;48.728;9.256;2023-04-07T12:02:03;96931.81;;;13.27;62.55
12178;BME280;6152;48.728;9.256;2023-04-07T12:04:30;96941.47;;;13.14;63.92
12178;BME280;6152;48.728;9.256;2023-04-07T12:07:07;96939.84;;;12.77;65.06
12178;BME280;6152;48.728;9.256;2023-04-07T12:09:34;96938.75;;;12.55;64.78
12178;BME280;6152;48.728;9.256;2023-04-07T12:12:04;96936.94;;;12.32;63.62
12178;BME280;6152;48.728;9.256;2023-04-07T12:14:31;96942.81;;;12.23;65.65
12178;BME280;6152;48.728;9.256;2023-04-07T12:16:57;96944.06;;;12.30;65.75
12178;BME280;6152;48.728;9.256;2023-04-07T12:19:28;96948.03;;;12.23;82.25
12178;BME280;6152;48.728;9.256;2023-04-07T12:21:55;96953.81;;;11.78;100.00
12178;BME280;6152;48.728;9.256;2023-04-07T12:24:21;96956.56;;;11.37;100.00
12178;BME280;6152;48.728;9.256;2023-04-07T12:26:48;96953.09;;;11.24;100.00
12178;BME280;6152;48.728;9.256;2023-04-07T12:29:16;96963.28;;;10.87;100.00
12178;BME280;6152;48.728;9.256;2023-04-07T12:31:42;96969.59;;;10.56;100.00
12178;BME280;6152;48.728;9.256;2023-04-07T12:34:08;96973.00;;;10.30;100.00
12178;BME280;6152;48.728;9.256;2023-04-07T12:36:35;96975.00;;;9.97;100.00
12178;BME280;6152;48.728;9.256;2023-04-07T12:39:01;96974.25;;;9.81;100.00
12178;BME280;6152;48.728;9.256;2023-04-07T12:41:27;96979.63;;;9.78;100.00
12178;BME280;6152;48.728;9.256;2023-04-07T12:43:53;96972.56;;;9.51;100.00
12178;BME280;6152;48.728;9.256;2023-04-07T12:46:19;96979.00;;;9.30;100.00
12178;BME280;6152;48.728;9.256;2023-04-07T12:48:46;96979.97;;;9.13;100.00
12178;BME280;6152;48.728;9.256;2023-04-07T12:51:13;96981.56;;;9.00;100.00
12178;BME280;6152;48.728;9.256;2023-04-07T12:53:39;96978.56;;;8.92;100.00
12178;BME280;6152;48.728;9.256;2023-04-07T12:56:06;96980.69;;;8.86;100.00
12178;BME280;6152;48.728;9.256;2023-04-07T12:58:32;96983.94;;;8.74;100.00
12178;BME280;6152;48.728;9.256;2023-04-07T13:00:58;96984.28;;;8.68;100.00
12178;BME280;6152;48.728;9.256;2023-04-07T13:03:25;96982.94;;;8.60;100.00
12178;BME280;6152;48.728;9.256;2023-04-07T13:05:51;96982.44;;;8.54;100.00
12178;BME280;6152;48.728;9.256;2023-04-07T13:08:20;96987.13;;;8.47;100.00
12178;BME280;6152;48.728;9.256;2023-04-07T13:10:46;96989.97;;;8.43;100.00
12178;BME280;6152;48.728;9.256;2023-04-07T13:13:12;96993.31;;;8.45;100.00
12178;BME280;6152;48.728;9.256;2023-04-07T13:15:39;96987.31;;;8.44;100.00
12178;BME280;6152;48.728;9.256;2023-04-07T13:18:05;96982.13;;;8.44;100.00
12178;BME280;6152;48.728;9.256;2023-04-07T13:20:31;96984.28;;;8.36;100.00
12178;BME280;6152;48.728;9.256;2023-04-07T13:22:57;96976.75;;;8.32;100.00
12178;BME280;6152;48.728;9.256;2023-04-07T13:25:23;96975.75;;;8.34;100.00
12178;BME280;6152;48.728;9.256;2023-04-07T13:27:49;96971.22;;;8.38;100.00
12178;BME280;6152;48.728;9.256;2023-04-07T13:30:16;96974.16;;;8.32;100.00
12178;BME280;6152;48.728;9.256;2023-04-07T13:32:42;96966.38;;;8.32;100.00